createdAt,value
2023-05-11T00:01:24.815Z,101424.73
2023-05-11T00:03:52.647Z,101422.81
2023-05-11T00:06:19.723Z,101424.54
2023-05-11T00:08:46.897Z,101424.88
2023-05-11T00:11:13.939Z,101425.75
2023-05-11T00:13:40.885Z,101426.25
2023-05-11T00:16:07.944Z,101424.33
2023-05-11T00:18:34.983Z,101426.89
2023-05-11T00:21:02.477Z,101421.00
2023-05-11T00:23:29.572Z,101421.38
2023-05-11T00:25:56.525Z,101422.05
2023-05-11T00:28:23.562Z,101424.44
2023-05-11T00:30:50.540Z,101423.54
2023-05-11T00:33:18.379Z,101421.95
2023-05-11T00:35:45.671Z,101420.69
2023-05-11T00:38:12.590Z,101422.04
2023-05-11T00:40:39.543Z,101419.74
2023-05-11T00:43:06.794Z,101421.95
2023-05-11T00:45:33.812Z,101422.98
2023-05-11T00:48:00.833Z,101421.77
2023-05-11T00:50:27.986Z,101423.98
2023-05-11T00:52:55.979Z,101422.77
2023-05-11T00:55:23.082Z,101419.64
2023-05-11T00:57:50.069Z,101419.79
2023-05-11T01:00:17.366Z,101419.26
2023-05-11T01:02:45.269Z,101419.38
2023-05-11T01:05:12.784Z,101421.77
2023-05-11T01:08:00.351Z,101420.52
2023-05-11T01:10:56.552Z,101422.19
2023-05-11T01:13:28.312Z,101422.84
2023-05-11T01:15:59.116Z,101424.91
2023-05-11T01:18:39.586Z,101423.15
2023-05-11T01:21:10.913Z,101426.09
2023-05-11T01:23:45.068Z,101426.60
2023-05-11T01:26:36.094Z,101425.38
2023-05-11T01:29:30.085Z,101425.70
2023-05-11T01:31:57.120Z,101432.09
2023-05-11T01:34:30.703Z,101429.65
2023-05-11T01:37:10.216Z,101431.52
2023-05-11T01:39:40.402Z,101434.75
2023-05-11T01:42:09.362Z,101437.29
2023-05-11T01:44:38.007Z,101437.08
2023-05-11T01:47:04.931Z,101434.08
2023-05-11T01:49:33.846Z,101436.12
2023-05-11T01:52:02.902Z,101436.92
2023-05-11T01:54:30.618Z,101436.20
2023-05-11T01:56:57.586Z,101435.63
2023-05-11T01:59:25.783Z,101435.25
2023-05-11T02:01:53.157Z,101438.89
2023-05-11T02:04:20.300Z,101436.64
2023-05-11T02:06:48.471Z,101436.46
2023-05-11T02:09:18.630Z,101438.00
2023-05-11T02:11:46.847Z,101438.66
2023-05-11T02:14:15.962Z,101440.55
2023-05-11T02:16:43.023Z,101442.96
2023-05-11T02:19:10.005Z,101444.67
2023-05-11T02:21:37.010Z,101442.94
2023-05-11T02:24:05.372Z,101443.09
2023-05-11T02:26:32.507Z,101444.48
2023-05-11T02:28:59.532Z,101450.73
2023-05-11T02:31:29.146Z,101448.31
2023-05-11T02:34:00.512Z,101447.96
2023-05-11T02:36:28.656Z,101446.56
2023-05-11T02:39:02.941Z,101448.27
2023-05-11T02:41:30.236Z,101452.57
2023-05-11T02:44:01.543Z,101454.63
2023-05-11T02:46:32.111Z,101454.78
2023-05-11T02:49:01.355Z,101449.20
2023-05-11T02:51:38.990Z,101449.86
2023-05-11T02:54:10.863Z,101450.69
2023-05-11T02:56:40.753Z,101452.20
2023-05-11T02:59:09.074Z,101454.27
2023-05-11T03:01:36.131Z,101462.04
2023-05-11T03:04:06.644Z,101456.48
2023-05-11T03:06:33.676Z,101455.59
2023-05-11T03:09:01.837Z,101465.10
2023-05-11T03:11:29.945Z,101465.44
2023-05-11T03:13:56.927Z,101468.57
2023-05-11T03:16:23.962Z,101468.21
2023-05-11T03:18:51.118Z,101468.56
2023-05-11T03:21:18.652Z,101472.72
2023-05-11T03:23:46.079Z,101472.73
2023-05-11T03:26:14.625Z,101477.23
2023-05-11T03:28:41.606Z,101477.38
2023-05-11T03:31:08.771Z,101478.91
2023-05-11T03:33:35.907Z,101476.44
2023-05-11T03:36:03.775Z,101481.80
2023-05-11T03:38:31.217Z,101481.92
2023-05-11T03:40:58.438Z,101483.29
2023-05-11T03:43:27.328Z,101488.82
2023-05-11T03:45:55.795Z,101492.44
2023-05-11T03:48:22.981Z,101494.64
2023-05-11T03:50:51.055Z,101492.70
2023-05-11T03:53:18.014Z,101493.88
2023-05-11T03:55:45.007Z,101495.94
2023-05-11T03:58:11.959Z,101496.98
2023-05-11T04:00:40.040Z,101500.42
2023-05-11T04:03:09.419Z,101505.41
2023-05-11T04:05:37.934Z,101510.05
2023-05-11T04:08:07.915Z,101508.94
2023-05-11T04:10:35.133Z,101517.17
2023-05-11T04:13:02.079Z,101515.19
2023-05-11T04:15:30.044Z,101516.85
2023-05-11T04:17:56.990Z,101513.83
2023-05-11T04:20:23.975Z,101517.05
2023-05-11T04:22:51.081Z,101520.27
2023-05-11T04:25:18.093Z,101523.63
2023-05-11T04:27:45.558Z,101524.40
2023-05-11T04:30:15.188Z,101524.78
2023-05-11T04:32:42.293Z,101525.05
2023-05-11T04:35:10.040Z,101519.52
2023-05-11T04:37:38.820Z,101516.69
2023-05-11T04:40:08.675Z,101518.39
2023-05-11T04:42:40.912Z,101519.55
2023-05-11T04:45:14.464Z,101520.01
2023-05-11T04:47:42.251Z,101520.16
2023-05-11T04:50:12.164Z,101522.95
2023-05-11T04:52:39.531Z,101525.77
2023-05-11T04:55:07.116Z,101520.77
2023-05-11T04:57:34.917Z,101513.46
2023-05-11T05:00:04.294Z,101518.70
2023-05-11T05:02:33.093Z,101521.30
2023-05-11T05:05:00.911Z,101523.86
2023-05-11T05:07:27.895Z,101523.26
2023-05-11T05:09:56.207Z,101525.06
2023-05-11T05:12:24.048Z,101523.54
2023-05-11T05:14:50.999Z,101526.50
2023-05-11T05:17:18.298Z,101525.83
2023-05-11T05:19:45.528Z,101524.56
2023-05-11T05:22:12.453Z,101523.64
2023-05-11T05:24:39.479Z,101524.67
2023-05-11T05:27:06.648Z,101520.48
2023-05-11T05:29:33.689Z,101522.35
2023-05-11T05:32:00.728Z,101523.10
2023-05-11T05:34:28.366Z,101523.08
2023-05-11T05:36:55.611Z,101524.08
2023-05-11T05:39:22.579Z,101521.77
2023-05-11T05:41:49.593Z,101524.86
2023-05-11T05:44:16.635Z,101525.29
2023-05-11T05:46:44.187Z,101523.56
2023-05-11T05:49:11.438Z,101525.41
2023-05-11T05:51:38.497Z,101524.79
2023-05-11T05:54:06.203Z,101521.62
2023-05-11T05:56:35.211Z,101519.66
2023-05-11T05:59:02.426Z,101517.30
2023-05-11T06:01:29.511Z,101517.10
2023-05-11T06:03:56.583Z,101517.23
2023-05-11T06:06:24.953Z,101515.20
2023-05-11T06:08:51.994Z,101510.95
2023-05-11T06:11:19.322Z,101509.02
2023-05-11T06:13:46.538Z,101508.95
2023-05-11T06:16:13.660Z,101509.27
2023-05-11T06:18:40.891Z,101511.54
2023-05-11T06:21:07.977Z,101509.99
2023-05-11T06:23:35.761Z,101513.95
2023-05-11T06:26:02.699Z,101510.33
2023-05-11T06:28:31.466Z,101506.73
2023-05-11T06:31:01.543Z,101502.90
2023-05-11T06:33:30.702Z,101505.89
2023-05-11T06:35:58.303Z,101501.63
2023-05-11T06:38:26.341Z,101502.91
2023-05-11T06:40:53.646Z,101502.89
2023-05-11T06:43:20.734Z,101504.52
2023-05-11T06:45:48.766Z,101503.44
2023-05-11T06:48:15.855Z,101504.47
2023-05-11T06:50:42.833Z,101506.27
2023-05-11T06:53:13.395Z,101501.77
2023-05-11T06:55:40.314Z,101500.94
2023-05-11T06:58:07.409Z,101496.02
2023-05-11T07:00:34.475Z,101495.02
2023-05-11T07:03:01.498Z,101499.18
2023-05-11T07:05:28.521Z,101499.23
2023-05-11T07:07:55.499Z,101501.97
2023-05-11T07:10:23.566Z,101503.66
2023-05-11T07:12:50.606Z,101501.35
2023-05-11T07:15:17.545Z,101500.99
2023-05-11T07:17:47.865Z,101498.55
2023-05-11T07:20:15.159Z,101501.69
2023-05-11T07:22:42.152Z,101504.05
2023-05-11T07:25:10.027Z,101502.63
2023-05-11T07:27:37.189Z,101502.97
2023-05-11T07:30:04.884Z,101501.13
2023-05-11T07:32:32.675Z,101497.80
2023-05-11T07:34:59.628Z,101493.59
2023-05-11T07:37:26.650Z,101487.67
2023-05-11T07:39:54.526Z,101487.31
2023-05-11T07:42:21.636Z,101486.15
2023-05-11T07:44:48.591Z,101484.94
2023-05-11T07:47:17.528Z,101487.27
2023-05-11T07:49:44.806Z,101484.69
2023-05-11T07:52:11.907Z,101481.73
2023-05-11T07:54:40.364Z,101476.59
2023-05-11T07:57:08.174Z,101477.59
2023-05-11T07:59:35.529Z,101477.33
2023-05-11T08:02:04.376Z,101474.16
2023-05-11T08:04:32.840Z,101471.95
2023-05-11T08:06:59.837Z,101474.15
2023-05-11T08:09:27.000Z,101475.20
2023-05-11T08:11:56.653Z,101473.70
2023-05-11T08:14:25.100Z,101474.36
2023-05-11T08:16:52.136Z,101473.73
2023-05-11T08:19:19.094Z,101474.52
2023-05-11T08:21:47.076Z,101473.40
2023-05-11T08:24:14.116Z,101471.05
2023-05-11T08:26:41.081Z,101470.75
2023-05-11T08:29:08.046Z,101465.38
2023-05-11T08:31:35.320Z,101460.64
2023-05-11T08:34:13.714Z,101466.81
2023-05-11T08:36:45.251Z,101473.13
2023-05-11T08:39:12.354Z,101466.40
2023-05-11T08:41:39.314Z,101464.98
2023-05-11T08:44:06.234Z,101464.53
2023-05-11T08:46:36.435Z,101466.23
2023-05-11T08:49:03.414Z,101470.53
2023-05-11T08:51:30.548Z,101470.87
2023-05-11T08:53:59.455Z,101467.72
2023-05-11T08:56:27.912Z,101465.58
2023-05-11T08:58:56.177Z,101464.30
2023-05-11T09:01:23.698Z,101460.52
2023-05-11T09:03:50.992Z,101462.82
2023-05-11T09:06:18.106Z,101464.48
2023-05-11T09:08:45.893Z,101463.58
2023-05-11T09:11:13.088Z,101466.59
2023-05-11T09:13:40.903Z,101464.06
2023-05-11T09:16:19.533Z,101461.55
2023-05-11T09:18:55.991Z,101456.42
2023-05-11T09:21:23.279Z,101449.98
2023-05-11T09:23:50.845Z,101450.81
2023-05-11T09:26:20.899Z,101450.88
2023-05-11T09:29:02.437Z,101452.50
2023-05-11T09:31:43.957Z,101448.73
2023-05-11T09:34:21.732Z,101450.54
2023-05-11T09:36:50.659Z,101442.46
2023-05-11T09:39:35.208Z,101443.93
2023-05-11T09:42:14.668Z,101440.77
2023-05-11T09:44:41.997Z,101438.23
2023-05-11T09:47:19.169Z,101435.21
2023-05-11T09:49:47.149Z,101434.83
2023-05-11T09:52:18.352Z,101433.13
2023-05-11T09:54:52.919Z,101431.05
2023-05-11T09:57:27.150Z,101425.55
2023-05-11T09:59:54.513Z,101422.20
2023-05-11T10:02:26.468Z,101421.52
2023-05-11T10:04:55.161Z,101419.05
2023-05-11T10:07:25.374Z,101414.92
2023-05-11T10:09:53.913Z,101411.00
2023-05-11T10:12:22.102Z,101412.79
2023-05-11T10:14:51.823Z,101409.46
2023-05-11T10:17:19.306Z,101410.54
2023-05-11T10:19:49.418Z,101406.65
2023-05-11T10:22:18.090Z,101405.77
2023-05-11T10:24:45.078Z,101402.87
2023-05-11T10:27:13.197Z,101399.27
2023-05-11T10:29:40.455Z,101396.70
2023-05-11T10:32:08.008Z,101398.75
2023-05-11T10:34:35.454Z,101396.23
2023-05-11T10:37:03.337Z,101394.68
2023-05-11T10:39:30.410Z,101398.04
2023-05-11T10:42:33.586Z,101394.98
2023-05-11T10:45:07.080Z,101390.51
2023-05-11T10:48:12.453Z,101390.67
2023-05-11T10:51:19.904Z,101385.79
2023-05-11T10:53:59.711Z,101383.55
2023-05-11T10:56:26.661Z,101385.78
2023-05-11T10:59:05.997Z,101384.63
2023-05-11T11:01:40.207Z,101382.90
2023-05-11T11:04:11.208Z,101380.05
2023-05-11T11:06:42.974Z,101375.27
2023-05-11T11:09:14.717Z,101372.42
2023-05-11T11:11:46.503Z,101372.42
2023-05-11T11:14:14.710Z,101367.73
2023-05-11T11:16:42.160Z,101374.70
2023-05-11T11:19:32.300Z,101372.92
2023-05-11T11:22:02.362Z,101369.23
2023-05-11T11:24:49.800Z,101374.48
2023-05-11T11:27:16.917Z,101370.53
2023-05-11T11:30:17.691Z,101366.96
2023-05-11T11:32:46.387Z,101364.56
2023-05-11T11:35:35.516Z,101360.82
2023-05-11T11:38:03.255Z,101362.38
2023-05-11T11:40:50.529Z,101356.73
2023-05-11T11:43:21.205Z,101356.96
2023-05-11T11:46:01.739Z,101357.11
2023-05-11T11:48:37.926Z,101353.70
2023-05-11T11:51:07.459Z,101353.50
2023-05-11T11:53:37.978Z,101351.64
2023-05-11T11:56:06.062Z,101353.99
2023-05-11T11:58:53.272Z,101347.73
2023-05-11T12:01:22.150Z,101352.34
2023-05-11T12:04:24.752Z,101346.48
2023-05-11T12:06:57.493Z,101346.24
2023-05-11T12:09:26.726Z,101347.95
2023-05-11T12:11:54.066Z,101344.03
2023-05-11T12:14:21.858Z,101344.69
2023-05-11T12:17:05.931Z,101344.14
2023-05-11T12:19:32.996Z,101341.45
2023-05-11T12:22:02.153Z,101342.16
2023-05-11T12:24:29.340Z,101343.41
2023-05-11T12:26:57.602Z,101342.40
2023-05-11T12:29:24.893Z,101340.66
2023-05-11T12:31:52.956Z,101337.33
2023-05-11T12:34:24.314Z,101342.23
2023-05-11T12:36:53.050Z,101340.91
2023-05-11T12:39:24.901Z,101342.08
2023-05-11T12:41:53.542Z,101341.39
2023-05-11T12:44:21.726Z,101343.20
2023-05-11T12:46:49.171Z,101341.31
2023-05-11T12:51:52.750Z,101337.59
2023-05-11T12:54:48.272Z,101336.02
2023-05-11T12:57:33.788Z,101335.50
2023-05-11T13:00:14.132Z,101334.38
2023-05-11T13:02:54.842Z,101333.06
2023-05-11T13:05:26.799Z,101327.85
2023-05-11T13:08:00.997Z,101320.19
2023-05-11T13:10:28.033Z,101324.92
2023-05-11T13:12:55.386Z,101321.85
2023-05-11T13:15:24.580Z,101317.19
2023-05-11T13:17:59.269Z,101313.10
2023-05-11T13:20:28.105Z,101311.25
2023-05-11T13:23:05.721Z,101308.16
2023-05-11T13:25:32.987Z,101311.70
2023-05-11T13:28:01.946Z,101313.27
2023-05-11T13:30:28.975Z,101313.30
2023-05-11T13:32:56.122Z,101312.45
2023-05-11T13:35:23.242Z,101310.92
2023-05-11T13:37:50.204Z,101311.16
2023-05-11T13:40:17.213Z,101309.09
2023-05-11T13:42:44.125Z,101305.83
2023-05-11T13:45:12.259Z,101303.16
2023-05-11T13:47:39.322Z,101304.81
2023-05-11T13:50:07.370Z,101306.94
2023-05-11T13:52:34.365Z,101309.77
2023-05-11T13:55:01.414Z,101306.14
2023-05-11T13:57:28.344Z,101305.62
2023-05-11T13:59:55.466Z,101301.13
2023-05-11T14:02:22.668Z,101297.40
2023-05-11T14:04:49.739Z,101303.27
2023-05-11T14:07:16.956Z,101294.37
2023-05-11T14:09:44.028Z,101292.66
2023-05-11T14:12:11.146Z,101295.98
2023-05-11T14:14:38.143Z,101291.23
2023-05-11T14:17:06.064Z,101293.42
2023-05-11T14:19:33.191Z,101292.84
2023-05-11T14:22:01.259Z,101291.20
2023-05-11T14:24:28.416Z,101291.52
2023-05-11T14:26:55.381Z,101289.60
2023-05-11T14:29:22.442Z,101285.36
2023-05-11T14:31:50.078Z,101285.91
2023-05-11T14:34:17.077Z,101289.79
2023-05-11T14:36:44.098Z,101285.41
2023-05-11T14:39:11.024Z,101293.04
2023-05-11T14:41:38.046Z,101288.64
2023-05-11T14:44:05.177Z,101286.64
2023-05-11T14:46:32.174Z,101281.00
2023-05-11T14:48:59.116Z,101278.48
2023-05-11T14:51:26.118Z,101274.85
2023-05-11T14:53:53.056Z,101280.05
2023-05-11T14:56:20.342Z,101276.17
2023-05-11T14:58:47.286Z,101276.05
2023-05-11T15:01:14.285Z,101273.98
2023-05-11T15:03:41.615Z,101274.77
2023-05-11T15:06:08.776Z,101272.09
2023-05-11T15:08:36.541Z,101269.61
2023-05-11T15:11:03.690Z,101266.86
2023-05-11T15:13:30.999Z,101272.20
2023-05-11T15:15:58.034Z,101274.73
2023-05-11T15:18:25.237Z,101274.52
2023-05-11T15:20:52.221Z,101267.96
2023-05-11T15:23:19.369Z,101265.09
2023-05-11T15:25:47.403Z,101262.85
2023-05-11T15:28:14.920Z,101264.52
2023-05-11T15:30:42.366Z,101268.27
2023-05-11T15:33:10.127Z,101267.08
2023-05-11T15:35:37.929Z,101261.16
2023-05-11T15:38:05.198Z,101264.64
2023-05-11T15:40:32.647Z,101266.86
2023-05-11T15:43:00.347Z,101264.50
2023-05-11T15:45:27.819Z,101263.59
2023-05-11T15:47:54.954Z,101266.82
2023-05-11T15:50:22.581Z,101271.13
2023-05-11T15:52:50.582Z,101269.73
2023-05-11T15:55:18.214Z,101267.50
2023-05-11T15:57:46.365Z,101269.23
2023-05-11T16:00:14.146Z,101273.16
2023-05-11T16:02:42.861Z,101273.14
2023-05-11T16:05:09.884Z,101273.42
2023-05-11T16:07:36.852Z,101270.36
2023-05-11T16:10:03.989Z,101272.89
2023-05-11T16:12:31.105Z,101273.61
2023-05-11T16:14:58.065Z,101272.12
2023-05-11T16:17:25.640Z,101268.10
2023-05-11T16:19:53.027Z,101269.75
2023-05-11T16:22:20.321Z,101276.86
2023-05-11T16:24:47.340Z,101274.95
2023-05-11T16:27:14.263Z,101275.85
2023-05-11T16:29:41.291Z,101276.55
2023-05-11T16:32:08.316Z,101279.18
2023-05-11T16:34:35.354Z,101282.90
2023-05-11T16:37:02.604Z,101283.52
2023-05-11T16:39:29.577Z,101287.30
2023-05-11T16:41:56.563Z,101285.52
2023-05-11T16:44:24.008Z,101289.12
2023-05-11T16:46:52.582Z,101291.30
2023-05-11T16:49:20.230Z,101291.18
2023-05-11T16:51:48.097Z,101293.11
2023-05-11T16:54:15.083Z,101292.86
2023-05-11T16:56:42.096Z,101292.89
2023-05-11T16:59:10.773Z,101293.10
2023-05-11T17:01:38.191Z,101289.37
2023-05-11T17:04:05.378Z,101291.02
2023-05-11T17:06:33.036Z,101292.96
2023-05-11T17:09:00.362Z,101290.62
2023-05-11T17:11:27.842Z,101287.48
2023-05-11T17:13:54.959Z,101289.36
2023-05-11T17:16:21.975Z,101290.58
2023-05-11T17:18:49.063Z,101292.08
2023-05-11T17:21:17.402Z,101296.10
2023-05-11T17:23:45.644Z,101294.20
2023-05-11T17:26:12.661Z,101301.65
2023-05-11T17:28:39.693Z,101301.29
2023-05-11T17:31:14.677Z,101300.56
2023-05-11T17:33:42.085Z,101303.42
2023-05-11T17:36:09.759Z,101304.77
2023-05-11T17:58:32.623Z,101323.52
2023-05-11T18:01:09.413Z,101326.88
2023-05-11T18:03:42.247Z,101329.80
2023-05-11T18:06:11.926Z,101333.38
2023-05-11T18:08:39.311Z,101336.09
2023-05-11T18:11:12.849Z,101339.08
2023-05-11T18:13:40.486Z,101345.66
2023-05-11T18:16:11.987Z,101343.48
2023-05-11T18:18:42.038Z,101348.06
2023-05-11T18:21:15.403Z,101349.19
2023-05-11T18:23:45.357Z,101348.73
2023-05-11T18:26:16.448Z,101352.05
2023-05-11T18:28:46.268Z,101350.46
2023-05-11T18:31:18.977Z,101350.93
2023-05-11T18:33:46.917Z,101354.67
2023-05-11T18:36:17.699Z,101356.44
2023-05-11T18:38:49.112Z,101356.65
2023-05-11T18:41:22.855Z,101360.16
2023-05-11T18:43:54.835Z,101363.86
2023-05-11T18:46:22.935Z,101359.79
2023-05-11T18:48:55.719Z,101360.70
2023-05-11T18:51:26.226Z,101364.67
2023-05-11T18:53:53.743Z,101364.46
2023-05-11T18:56:24.332Z,101367.03
2023-05-11T18:58:54.332Z,101369.80
2023-05-11T19:01:46.634Z,101370.36
2023-05-11T19:04:17.757Z,101368.99
2023-05-11T19:06:46.226Z,101368.47
2023-05-11T19:09:29.652Z,101365.91
2023-05-11T19:12:08.509Z,101368.48
2023-05-11T19:22:56.825Z,101367.29
2023-05-11T19:25:24.444Z,101363.94
2023-05-11T19:33:27.500Z,101362.95
2023-05-11T19:36:20.538Z,101362.55
2023-05-11T19:41:55.718Z,101364.40
2023-05-11T19:51:28.238Z,101371.35
2023-05-11T19:54:30.089Z,101373.46
2023-05-11T19:57:18.471Z,101373.05
2023-05-11T20:00:41.702Z,101370.02
2023-05-11T20:03:52.573Z,101368.38
2023-05-11T20:08:33.296Z,101367.96
2023-05-11T20:11:32.259Z,101368.05
2023-05-11T20:14:48.606Z,101375.14
2023-05-11T20:18:05.772Z,101375.66
2023-05-11T20:21:03.117Z,101376.51
2023-05-11T20:24:34.325Z,101375.64
2023-05-11T20:28:12.791Z,101376.20
2023-05-11T20:31:40.927Z,101378.12
2023-05-11T20:34:49.928Z,101374.73
2023-05-11T20:38:27.136Z,101375.09
2023-05-11T20:41:51.374Z,101376.38
2023-05-11T20:45:05.386Z,101373.36
2023-05-11T20:48:53.410Z,101374.48
2023-05-11T20:52:41.828Z,101377.39
2023-05-11T20:55:22.288Z,101379.76
2023-05-11T21:00:03.535Z,101385.92
2023-05-11T21:02:33.508Z,101384.22
2023-05-11T21:05:37.530Z,101385.92
2023-05-11T21:08:28.383Z,101383.42
2023-05-11T21:11:59.730Z,101387.96
2023-05-11T21:15:17.750Z,101387.66
2023-05-11T21:18:35.665Z,101386.56
2023-05-11T21:21:29.173Z,101388.95
2023-05-11T21:24:48.633Z,101388.63
2023-05-11T21:27:49.783Z,101394.93
2023-05-11T21:31:25.130Z,101392.65
2023-05-11T21:34:53.221Z,101394.46
2023-05-11T21:38:26.861Z,101391.59
2023-05-11T21:41:53.758Z,101398.42
2023-05-11T21:45:13.352Z,101394.62
2023-05-11T21:49:01.588Z,101395.58
2023-05-11T21:52:48.653Z,101398.02
2023-05-11T21:56:33.287Z,101399.59
2023-05-11T22:00:01.008Z,101406.40
2023-05-11T22:03:36.816Z,101407.42
2023-05-11T22:07:17.968Z,101406.48
2023-05-11T22:11:05.094Z,101406.26
2023-05-11T22:14:53.389Z,101411.30
2023-05-11T22:18:18.864Z,101406.94
2023-05-11T22:22:07.016Z,101410.68
2023-05-11T22:25:45.375Z,101409.39
2023-05-11T22:29:32.268Z,101408.21
2023-05-11T22:33:20.311Z,101408.56
2023-05-11T22:36:58.513Z,101411.88
2023-05-11T22:40:20.553Z,101414.75
2023-05-11T22:43:58.838Z,101412.80
2023-05-11T22:47:06.513Z,101408.70
2023-05-11T22:50:54.868Z,101405.08
2023-05-11T22:54:25.679Z,101406.23
2023-05-11T22:58:13.772Z,101404.13
2023-05-11T23:02:01.690Z,101404.86
2023-05-11T23:05:32.628Z,101403.96
2023-05-11T23:08:36.572Z,101404.41
2023-05-11T23:12:04.503Z,101404.77
2023-05-11T23:15:34.749Z,101402.63
2023-05-11T23:18:55.827Z,101402.63
2023-05-11T23:22:22.946Z,101399.21
2023-05-11T23:25:58.271Z,101399.40
2023-05-11T23:29:28.509Z,101401.15
2023-05-11T23:33:09.411Z,101397.73
2023-05-11T23:36:48.591Z,101400.63
2023-05-11T23:40:36.611Z,101399.48
2023-05-11T23:44:17.390Z,101397.86
2023-05-11T23:47:55.317Z,101401.35
2023-05-11T23:51:43.553Z,101401.19
2023-05-11T23:55:24.578Z,101395.56
2023-05-11T23:59:12.519Z,101400.27
